createdAt,value
2023-05-08T00:03:07.364Z,7.80
2023-05-08T00:07:12.637Z,7.65
2023-05-08T00:11:15.397Z,7.10
2023-05-08T00:15:19.480Z,7.72
2023-05-08T00:19:24.664Z,8.02
2023-05-08T00:23:27.420Z,7.80
2023-05-08T00:27:30.199Z,8.07
2023-05-08T00:31:32.938Z,8.15
2023-05-08T00:35:37.015Z,7.97
2023-05-08T00:39:39.869Z,8.00
2023-05-08T00:43:42.785Z,8.10
2023-05-08T00:47:45.803Z,8.35
2023-05-08T00:51:53.478Z,8.40
2023-05-08T00:55:56.495Z,8.23
2023-05-08T01:00:01.781Z,8.35
2023-05-08T01:04:04.891Z,10.70
2023-05-08T01:08:11.193Z,8.40
2023-05-08T01:12:19.308Z,8.98
2023-05-08T01:16:30.306Z,9.13
2023-05-08T01:20:45.564Z,8.73
2023-05-08T01:25:24.824Z,9.02
2023-05-08T01:29:58.799Z,9.43
2023-05-08T01:34:07.544Z,9.45
2023-05-08T01:38:15.898Z,9.25
2023-05-08T01:42:24.709Z,11.05
2023-05-08T01:46:30.814Z,9.70
2023-05-08T01:50:39.277Z,9.20
2023-05-08T01:54:47.790Z,10.32
2023-05-08T01:58:52.732Z,9.65
2023-05-08T02:02:57.014Z,10.40
2023-05-08T02:07:02.382Z,9.77
2023-05-08T02:11:06.865Z,10.25
2023-05-08T02:15:11.433Z,10.32
2023-05-08T02:19:17.279Z,10.65
2023-05-08T02:23:23.284Z,11.50
2023-05-08T02:27:28.905Z,10.77
2023-05-08T02:31:32.555Z,10.15
2023-05-08T02:35:36.422Z,10.88
2023-05-08T02:39:42.600Z,10.98
2023-05-08T02:43:45.969Z,11.18
2023-05-08T02:47:56.096Z,11.00
2023-05-08T02:52:06.771Z,11.05
2023-05-08T02:56:12.967Z,11.48
2023-05-08T03:00:20.233Z,10.98
2023-05-08T03:04:32.177Z,11.85
2023-05-08T03:08:36.488Z,12.40
2023-05-08T03:12:44.305Z,11.70
2023-05-08T03:16:48.672Z,11.98
2023-05-08T03:20:55.460Z,11.73
2023-05-08T03:25:00.982Z,11.73
2023-05-08T03:29:06.493Z,11.95
2023-05-08T03:33:13.638Z,14.73
2023-05-08T03:37:16.684Z,12.70
2023-05-08T03:41:20.106Z,12.55
2023-05-08T03:45:26.342Z,12.32
2023-05-08T03:49:34.600Z,12.88
2023-05-08T03:53:37.526Z,12.80
2023-05-08T03:57:46.853Z,12.98
2023-05-08T04:01:56.173Z,12.65
2023-05-08T04:06:03.268Z,12.02
2023-05-08T04:10:11.677Z,13.60
2023-05-08T04:14:20.292Z,14.45
2023-05-08T04:18:29.628Z,12.80
2023-05-08T04:22:36.597Z,12.65
2023-05-08T04:26:39.827Z,13.98
2023-05-08T04:30:43.099Z,12.27
2023-05-08T04:34:48.108Z,12.65
2023-05-08T04:38:51.066Z,12.80
2023-05-08T04:42:53.939Z,12.38
2023-05-08T04:46:57.906Z,12.05
2023-05-08T04:51:03.527Z,12.90
2023-05-08T04:55:07.696Z,12.85
2023-05-08T04:59:14.786Z,13.38
2023-05-08T05:03:19.086Z,14.48
2023-05-08T05:07:23.360Z,12.70
2023-05-08T05:11:27.178Z,12.68
2023-05-08T05:15:30.322Z,14.07
2023-05-08T05:19:33.215Z,12.07
2023-05-08T05:23:38.119Z,12.43
2023-05-08T05:27:41.792Z,12.50
2023-05-08T05:31:44.928Z,12.75
2023-05-08T05:35:47.859Z,11.85
2023-05-08T05:39:52.019Z,11.10
2023-05-08T05:43:55.424Z,10.68
2023-05-08T05:47:58.956Z,11.02
2023-05-08T05:52:04.327Z,10.55
2023-05-08T05:56:09.015Z,11.25
2023-05-08T06:00:16.771Z,10.05
2023-05-08T06:04:25.325Z,11.65
2023-05-08T06:08:28.789Z,11.00
2023-05-08T06:12:33.891Z,11.00
2023-05-08T06:16:37.202Z,10.88
2023-05-08T06:20:40.295Z,11.10
2023-05-08T06:24:43.318Z,10.60
2023-05-08T06:28:47.583Z,10.20
2023-05-08T06:32:50.408Z,9.82
2023-05-08T06:36:53.190Z,10.60
2023-05-08T06:40:55.981Z,9.93
2023-05-08T06:45:01.510Z,10.50
2023-05-08T06:49:05.085Z,9.63
2023-05-08T06:53:09.003Z,9.52
2023-05-08T06:57:14.601Z,10.68
2023-05-08T07:01:19.359Z,9.07
2023-05-08T07:05:22.718Z,9.48
2023-05-08T07:09:32.657Z,9.10
2023-05-08T07:13:37.445Z,8.73
2023-05-08T07:17:41.634Z,8.77
2023-05-08T07:21:46.245Z,9.57
2023-05-08T07:25:49.223Z,8.63
2023-05-08T07:29:52.114Z,8.82
2023-05-08T07:33:56.270Z,9.20
2023-05-08T07:37:59.039Z,8.73
2023-05-08T07:42:01.810Z,9.30
2023-05-08T07:46:04.748Z,8.32
2023-05-08T07:50:09.606Z,9.02
2023-05-08T07:54:12.364Z,8.95
2023-05-08T07:58:15.269Z,8.40
2023-05-08T08:02:18.105Z,8.65
2023-05-08T08:06:22.226Z,7.97
2023-05-08T08:10:25.094Z,8.27
2023-05-08T08:14:28.670Z,7.50
2023-05-08T08:18:32.464Z,7.63
2023-05-08T08:22:38.906Z,8.20
2023-05-08T08:26:41.737Z,7.68
2023-05-08T08:30:44.681Z,8.02
2023-05-08T08:34:49.019Z,7.90
2023-05-08T08:38:53.563Z,7.72
2023-05-08T08:43:02.433Z,7.45
2023-05-08T08:47:12.927Z,7.53
2023-05-08T08:51:28.367Z,8.18
2023-05-08T08:55:34.713Z,7.35
2023-05-08T08:59:39.811Z,7.20
2023-05-08T09:03:42.908Z,7.45
2023-05-08T09:07:45.972Z,7.40
2023-05-08T09:12:14.142Z,6.65
2023-05-08T09:16:36.097Z,6.80
2023-05-08T09:20:41.970Z,6.60
2023-05-08T09:24:56.771Z,8.45
2023-05-08T09:29:16.250Z,7.28
2023-05-08T09:33:19.402Z,7.50
2023-05-08T09:37:22.615Z,7.88
2023-05-08T09:41:26.459Z,7.03
2023-05-08T09:45:32.172Z,6.95
2023-05-08T09:49:35.179Z,6.90
2023-05-08T09:53:38.093Z,7.10
2023-05-08T09:57:52.223Z,7.47
2023-05-08T10:01:57.202Z,7.80
2023-05-08T10:06:14.176Z,7.07
2023-05-08T10:10:24.146Z,6.45
2023-05-08T10:14:26.890Z,6.90
2023-05-08T10:18:33.406Z,8.40
2023-05-08T10:22:39.776Z,6.47
2023-05-08T10:26:57.164Z,6.38
2023-05-08T10:31:09.264Z,7.00
2023-05-08T10:35:13.519Z,8.68
2023-05-08T10:39:17.205Z,12.00
2023-05-08T10:43:20.660Z,6.93
2023-05-08T10:47:29.074Z,18.05
2023-05-08T10:51:43.012Z,9.23
2023-05-08T10:55:50.661Z,7.65
2023-05-08T10:59:53.399Z,9.00
2023-05-08T11:03:57.002Z,8.27
2023-05-08T11:08:01.439Z,7.95
2023-05-08T11:12:17.393Z,8.65
2023-05-08T11:16:59.716Z,8.10
2023-05-08T11:21:05.437Z,8.00
2023-05-08T11:25:11.701Z,7.60
2023-05-08T11:29:18.053Z,7.75
2023-05-08T11:33:20.998Z,8.90
2023-05-08T11:37:25.622Z,8.30
2023-05-08T11:41:29.774Z,8.63
2023-05-08T11:45:33.852Z,9.10
2023-05-08T11:49:37.425Z,8.10
2023-05-08T11:53:41.393Z,8.13
2023-05-08T11:57:45.461Z,8.25
2023-05-08T12:02:06.992Z,9.00
2023-05-08T12:06:11.101Z,8.73
2023-05-08T12:10:14.643Z,10.45
2023-05-08T12:14:19.765Z,8.90
2023-05-08T12:18:23.371Z,9.07
2023-05-08T12:22:26.134Z,8.38
2023-05-08T12:26:28.957Z,8.60
2023-05-08T12:30:33.266Z,7.90
2023-05-08T12:34:37.020Z,9.25
2023-05-08T12:38:39.896Z,6.93
2023-05-08T12:42:43.334Z,8.10
2023-05-08T12:46:52.826Z,7.60
2023-05-08T12:50:56.012Z,7.75
2023-05-08T12:54:59.026Z,8.02
2023-05-08T12:59:01.909Z,6.65
2023-05-08T13:03:07.487Z,7.43
2023-05-08T13:07:10.479Z,5.80
2023-05-08T13:11:13.306Z,6.40
2023-05-08T13:15:16.219Z,6.25
2023-05-08T13:19:20.472Z,5.20
2023-05-08T13:23:23.525Z,5.30
2023-05-08T13:27:26.480Z,5.15
2023-05-08T13:31:29.300Z,5.38
2023-05-08T13:35:34.642Z,5.72
2023-05-08T13:39:37.744Z,5.35
2023-05-08T13:43:41.264Z,7.95
2023-05-08T13:47:44.318Z,8.27
2023-05-08T13:51:52.013Z,7.35
2023-05-08T13:55:59.409Z,5.78
2023-05-08T14:00:02.557Z,8.43
2023-05-08T14:04:10.418Z,7.50
2023-05-08T14:08:14.732Z,6.07
2023-05-08T14:12:19.515Z,5.47
2023-05-08T14:16:22.745Z,5.85
2023-05-08T14:20:25.606Z,6.10
2023-05-08T14:24:29.698Z,7.72
2023-05-08T14:28:32.633Z,11.10
2023-05-08T14:32:35.586Z,12.43
2023-05-08T14:36:38.742Z,12.25
2023-05-08T14:40:42.992Z,11.82
2023-05-08T14:44:45.941Z,10.63
2023-05-08T14:48:48.831Z,9.80
2023-05-08T14:52:51.586Z,10.80
2023-05-08T14:56:55.813Z,9.82
2023-05-08T15:00:58.649Z,9.35
2023-05-08T15:05:04.475Z,9.30
2023-05-08T15:09:11.100Z,7.95
2023-05-08T15:13:17.241Z,6.93
2023-05-08T15:17:20.345Z,8.50
2023-05-08T15:21:26.316Z,7.80
2023-05-08T15:25:29.137Z,8.15
2023-05-08T15:29:33.587Z,10.02
2023-05-08T15:33:36.645Z,11.15
2023-05-08T15:37:39.797Z,10.50
2023-05-08T15:41:42.764Z,9.07
2023-05-08T15:45:46.922Z,8.60
2023-05-08T15:49:51.137Z,9.10
2023-05-08T15:53:54.129Z,8.68
2023-05-08T15:57:56.844Z,10.00
2023-05-08T16:02:00.965Z,10.07
2023-05-08T16:06:09.044Z,10.27
2023-05-08T16:10:12.648Z,9.77
2023-05-08T16:14:16.652Z,9.00
2023-05-08T16:18:21.201Z,8.32
2023-05-08T16:22:24.674Z,8.57
2023-05-08T16:26:27.517Z,8.02
2023-05-08T16:30:30.678Z,7.90
2023-05-08T16:34:36.578Z,7.70
2023-05-08T16:38:39.519Z,7.82
2023-05-08T16:42:42.272Z,7.07
2023-05-08T16:46:45.110Z,7.97
2023-05-08T16:50:49.281Z,7.53
2023-05-08T16:54:52.087Z,7.80
2023-05-08T16:58:54.853Z,6.82
2023-05-08T17:02:57.786Z,7.90
2023-05-08T17:07:04.967Z,8.70
2023-05-08T17:11:07.781Z,8.40
2023-05-08T17:15:11.649Z,6.50
2023-05-08T17:19:14.707Z,6.97
2023-05-08T17:23:19.081Z,8.43
2023-05-08T17:27:21.951Z,10.25
2023-05-08T17:31:25.055Z,9.52
2023-05-08T17:35:28.102Z,10.77
2023-05-08T17:39:33.617Z,10.77
2023-05-08T17:43:36.824Z,10.82
2023-05-08T17:47:40.333Z,10.85
2023-05-08T17:51:43.452Z,10.38
2023-05-08T17:55:48.508Z,11.60
2023-05-08T17:59:51.926Z,10.85
2023-05-08T18:03:54.814Z,10.60
2023-05-08T18:07:57.972Z,10.45
2023-05-08T18:12:03.669Z,11.07
2023-05-08T18:16:06.673Z,10.35
2023-05-08T18:20:10.449Z,11.50
2023-05-08T18:24:13.467Z,11.30
2023-05-08T18:28:17.894Z,11.07
2023-05-08T18:32:21.276Z,10.90
2023-05-08T18:36:25.560Z,12.93
2023-05-08T18:40:28.614Z,10.30
2023-05-08T18:44:32.934Z,11.27
2023-05-08T18:48:36.375Z,12.20
2023-05-08T18:52:40.748Z,11.88
2023-05-08T18:56:44.138Z,13.40
2023-05-08T19:00:48.607Z,15.73
2023-05-08T19:04:52.494Z,14.65
2023-05-08T19:08:55.815Z,12.98
2023-05-08T19:13:02.233Z,11.68
2023-05-08T19:17:08.492Z,12.65
2023-05-08T19:21:11.706Z,10.18
2023-05-08T19:25:14.747Z,11.40
2023-05-08T19:29:17.594Z,10.10
2023-05-08T19:33:22.132Z,9.68
2023-05-08T19:37:25.177Z,9.80
2023-05-08T19:41:28.285Z,8.30
2023-05-08T19:45:31.144Z,8.57
2023-05-08T19:49:35.766Z,7.57
2023-05-08T19:53:39.920Z,6.75
2023-05-08T19:57:43.192Z,6.50
2023-05-08T20:01:46.182Z,6.45
2023-05-08T20:05:52.699Z,5.95
2023-05-08T20:10:01.712Z,6.13
2023-05-08T20:14:04.797Z,6.38
2023-05-08T20:18:09.494Z,6.07
2023-05-08T20:22:13.900Z,6.43
2023-05-08T20:26:16.782Z,7.28
2023-05-08T20:30:20.958Z,5.60
2023-05-08T20:34:24.973Z,7.20
2023-05-08T20:38:29.092Z,5.75
2023-05-08T20:42:31.927Z,5.63
2023-05-08T20:46:34.688Z,5.82
2023-05-08T20:50:37.484Z,6.32
2023-05-08T20:54:44.350Z,7.07
2023-05-08T20:58:47.629Z,5.32
2023-05-08T21:02:51.663Z,6.05
2023-05-08T21:06:54.457Z,5.97
2023-05-08T21:10:58.714Z,6.32
2023-05-08T21:15:01.642Z,7.43
2023-05-08T21:19:04.412Z,6.10
2023-05-08T21:23:07.208Z,6.10
2023-05-08T21:27:11.332Z,6.38
2023-05-08T21:31:14.249Z,6.53
2023-05-08T21:35:17.477Z,6.35
2023-05-08T21:39:20.462Z,6.53
2023-05-08T21:43:24.577Z,6.30
2023-05-08T21:47:28.198Z,5.70
2023-05-08T21:51:34.268Z,5.93
2023-05-08T21:55:37.390Z,5.60
2023-05-08T21:59:41.440Z,5.85
2023-05-08T22:03:45.194Z,6.28
2023-05-08T22:07:48.341Z,6.10
2023-05-08T22:11:51.327Z,6.05
2023-05-08T22:15:55.454Z,6.05
2023-05-08T22:20:01.038Z,7.00
2023-05-08T22:24:04.441Z,6.78
2023-05-08T22:28:07.149Z,6.35
2023-05-08T22:32:13.844Z,7.18
2023-05-08T22:36:24.756Z,6.78
2023-05-08T22:40:28.020Z,6.80
2023-05-08T22:44:32.963Z,6.65
2023-05-08T22:48:44.895Z,6.75
2023-05-08T22:52:51.910Z,6.72
2023-05-08T22:56:59.795Z,6.53
2023-05-08T23:01:08.126Z,6.57
2023-05-08T23:05:14.773Z,6.68
2023-05-08T23:09:18.008Z,6.93
2023-05-08T23:13:21.836Z,6.28
2023-05-08T23:17:24.751Z,6.00
2023-05-08T23:21:30.877Z,6.75
2023-05-08T23:25:35.923Z,6.38
2023-05-08T23:29:39.193Z,6.15
2023-05-08T23:33:41.913Z,6.18
2023-05-08T23:37:46.343Z,10.02
2023-05-08T23:41:49.324Z,6.88
2023-05-08T23:45:52.120Z,6.70
2023-05-08T23:49:55.076Z,6.45
2023-05-08T23:54:02.430Z,5.90
2023-05-08T23:58:07.706Z,6.55
